Flight Track Log - Related Links

Times and Time Zones

All times are in EDT time to prevent confusion due to time zone crossing. See the JBU24 flight status page for this flight to view local times or setup timezone preferences in your user account.

Time Position Orientation Groundspeed Altitude Reporting Facility
EDT Latitude Longitude Course Direction KTS MPH feet Rate Location/Type
Wed 08:48:36 PM 40.6000 -73.8000 14° North 157 181 1,700  Level New York TRACON
Wed 08:49:36 PM 40.5833 -73.7667 123° Southeast 217 250 4,200 2,656 Climbing New York TRACON
Wed 08:50:00 PM 40.9268 -73.6116 21° North  Level FlightAware Approximate
Wed 08:51:00 PM 41.0301 -73.5577 27° Northeast  Level FlightAware Approximate
Wed 08:51:39 PM 40.6831 -73.6306 46° Northeast 255 293 9,800  Level Boston Center
Wed 08:52:00 PM 41.1293 -73.4916 27° Northeast  Level FlightAware Approximate
Wed 08:52:39 PM 40.7608 -73.5636 33° Northeast 289 333 11,700  Level Boston Center
Wed 08:53:00 PM 41.2327 -73.4391 14° North  Level FlightAware Approximate
Wed 08:53:51 PM 40.8594 -73.4939 28° Northeast 325 374 13,900  Level Boston Center
Wed 08:54:51 PM 40.9975 -73.4550 12° North 378 435 16,700 2,450 Climbing Boston Center
Wed 08:55:51 PM 41.1144 -73.4236 11° North 423 487 18,800 2,000 Climbing Boston Center
Wed 08:56:51 PM 41.2397 -73.3869 12° North 438 504 20,700 1,600 Climbing Boston Center
Wed 08:57:51 PM 41.3608 -73.3500 13° North 443 510 22,000 650 Climbing Boston Center
Wed 08:58:51 PM 41.4822 -73.3047 16° North 449 517 22,000  Level Boston Center
Wed 08:59:51 PM 41.5706 -73.1947 43° Northeast 428 493 22,000  Level Boston Center
Wed 09:01:03 PM 41.6794 -73.1239 26° Northeast 428 493 22,000  Level Boston Center
Wed 09:02:03 PM 41.8250 -73.1422 355° North 414 476 22,000  Level Boston Center
Wed 09:03:15 PM 41.9458 -73.1631 353° North 419 482 22,000  Level Boston Center
Wed 09:04:15 PM 42.0917 -73.1897 352° North 430 495 22,000  Level Boston Center
Wed 09:05:15 PM 42.2144 -73.2108 353° North 436 502 22,000  Level Boston Center
Wed 09:06:15 PM 42.3350 -73.2322 353° North 441 507 22,000  Level Boston Center
Wed 09:07:15 PM 42.4431 -73.2983 336° Northwest 430 495 22,000  Level Boston Center
Wed 09:08:15 PM 42.4900 -73.4200 298° West 416 479 22,000  Level Boston Center
Wed 09:09:15 PM 42.5428 -73.5814 294° West 421 484 22,000  Level Boston Center
Wed 09:10:15 PM 42.5889 -73.7317 293° West 421 484 22,000  Level Boston Center
Wed 09:11:15 PM 42.6331 -73.8850 291° West 426 490 22,000  Level Boston Center
Wed 09:12:15 PM 42.6853 -74.0358 295° West 438 504 22,000  Level Boston Center
Wed 09:13:15 PM 42.7308 -74.1869 292° West 438 504 22,000 -900 Level Boston Center
Wed 09:14:15 PM 42.7764 -74.3408 292° West 438 504 20,200 -2,200 Descending Boston Center
Wed 09:15:15 PM 42.8258 -74.4981 293° West 429 494 17,600 -2,150 Descending Boston Center
Wed 09:16:15 PM 42.8669 -74.6383 292° West 415 478 15,900 -1,400 Descending Boston Center
Wed 09:17:15 PM 42.8983 -74.7386 293° West 409 471 14,800 -1,300 Descending Boston Center
Wed 09:18:15 PM 42.9450 -74.8964 292° West 393 452 13,300 -1,400 Descending Boston Center
Wed 09:19:15 PM 42.9858 -75.0286 293° West 382 440 12,000 -1,300 Descending Boston Center
Wed 09:20:15 PM 43.0225 -75.1581 291° West 376 433 10,700 -1,050 Descending Boston Center
Wed 09:21:15 PM 43.0358 -75.2894 278° West 363 418 9,900 -984 Descending Boston Center
Wed 09:22:23 PM 43.0828 -75.4167 297° West 300 345 8,600 -1,349 Descending Boston Center
Wed 09:23:24 PM 43.1256 -75.5239 299° West 296 341 7,000 -1,500 Descending Boston Center
Wed 09:24:15 PM 43.1589 -75.5997 301° West 298 343 5,800 -1,514 Descending Boston Center
Wed 09:25:15 PM 43.2000 -75.6958 300° West 293 337 4,200 -1,200 Descending Boston Center
Wed 09:26:15 PM 43.2328 -75.7944 295° West 293 337 3,400 -650 Descending Boston Center
Wed 09:27:15 PM 43.2589 -75.8958 290° West 287 330 2,900 -250 Descending Boston Center
Wed 09:28:15 PM 43.2850 -75.9972 290° West 287 330 2,900  Level Boston Center
Wed 09:29:15 PM 43.3047 -76.0981 285° West 282 325 2,900  Level Boston Center
Wed 09:30:15 PM 43.3056 -76.2011 271° West 282 325 2,900 -350 Level Boston Center
Wed 09:31:15 PM 43.2697 -76.2731 236° Southwest 245 282 2,200 -474 Descending Boston Center
Wed 09:31:31 PM 43.2550 -76.2747 185° South 190 219 2,300 81 Climbing Boston Center
Wed 09:32:29 PM 43.2161 -76.2525 157° South 162 186 2,300 -96 Level Boston Center
Wed 09:33:36 PM 43.1783 -76.1989 134° Southeast 162 186 2,100 -425 Descending Boston Center
Wed 09:34:36 PM 43.1544 -76.1689 138° Southeast 122 140 1,400 -645 Descending Boston Center
Wed 09:35:37 PM 43.1306 -76.1333 133° Southeast 118 136 800 -590 Descending Boston Center

Login

Don't have an account? Register now (free) for customized features, flight alerts, and more!